University of Illinois Willard Airport
KCMI : now visible

Airfield :











YOU CAN JOIN US ON...

 
LOGIN :

Register | Disclaimer

   EN    FR    IT 

 









Legend :    VFR   Marginal VFR   IFR   Intensive IFR   Very Intensive IFR
Visi :
Ceiling :
>= 8 km
>= 3000ft
5 to 8 km
1000 to 3000 ft
1500m to 5 km
500 to 1000 ft
800 to 1500m
200 to 500 ft
< 800m
< 200 ft
Symbols :   Thunderstorms  Fog  Heavy snow  Heavy precipitations  Wind > 20 kt






- Airport Elevation : 755 ft
- IATA code : CMI


KCMI - University of Illinois Willard

CURRENT METAR :
  • 180053Z 08012KT 6SM -FZRAPL SCT060 OVC080 M02/M04 A3031 RMK AO2 PRESFR SLP274 P0003 I1001 T10171044

EXPIRED METARs :
  • 172353Z 09014KT 6SM -FZRAPL BKN050 OVC065 M02/M06 A3032 RMK AO2 PK WND 09026/2338 UPB12E13FZRAB14PLB14 SLP277 P0000 60000 I1000 I6000 T10171056 11017 21033 58030
  • 172320Z 11015G24KT 8SM -FZRAPL OVC060 M02/M06 A3035 RMK AO2 UPB12E13FZRAB14PLB14 P0000 I1000 T10171061
  • 172253Z 10016KT 10SM FEW050 OVC070 M02/M06 A3035 RMK AO2 PK WND 09026/2230 UPB32E43 SLP288 P0000 T10171061

TAF KCMI
Valid from the 18 at 00:00 until the 19 at 00:00 UTC


172351Z 1800/1824 12014G25KT 2SM -FZRAPL BR OVC045
FM180400 14016KT 3SM FZRA BR OVC015
FM180600 15016KT 2SM RA BR OVC008 WS020/18045KT
FM181500 23017KT 2SM BR VCSH OVC004 WS020/25045KT
FM181600 24019G28KT 5SM BR VCSH OVC007
FM181800 26022G35KT P6SM OVC011



MET'MAP, your aeronautical weather chart ! - Copyright ORBIFLY December 2007 - Disclaimer

ORBIFLY MET'MAP TEAM :

Programming & Development : Alexandra Zaïnal
Concept & original design : Baudouin d'Aumeries
Assistance for programming : Marc-Olivier Méhu
Technical & hardware support : Manuel Goepfert

Contact : metmap@orbifly.com




SOURCES & CREDITS :

   NOAA       Earth
Advisory